Time;durP1;ratioP1;P1;durP2;ratioP2;P2;SDS_P1;SDS_P2;PMS_P1;PMS_P2;Temp;Humidity;BMP_temperature;BMP_pressure;BME280_temperature;BME280_humidity;BME280_pressure;Samples;Min_cycle;Max_cycle;Signal;HPM_P1;HPM_P2
2022/09/30 00:00:20;;;;;;;343.92;91.65;;;;;;;;;;5045292;28;20048;-58
2022/09/30 00:02:46;;;;;;;297.60;81.55;;;;;;;;;;5050957;28;20049;-58
2022/09/30 00:05:13;;;;;;;262.67;76.32;;;;;;;;;;5046409;28;20409;-58
2022/09/30 00:07:39;;;;;;;287.83;75.25;;;;;;;;;;5045198;28;20489;-60
2022/09/30 00:10:06;;;;;;;278.70;76.53;;;;;;;;;;5044111;28;20045;-61
2022/09/30 00:12:33;;;;;;;275.85;79.10;;;;;;;;;;5046311;28;20072;-61
2022/09/30 00:14:59;;;;;;;328.92;83.45;;;;;;;;;;5048423;28;20501;-60
2022/09/30 00:17:27;;;;;;;280.50;80.05;;;;;;;;;;5048142;28;20414;-60
2022/09/30 00:19:53;;;;;;;286.40;78.50;;;;;;;;;;5045420;28;20049;-60
2022/09/30 00:22:20;;;;;;;306.75;83.72;;;;;;;;;;5045413;28;20055;-60
2022/09/30 00:24:46;;;;;;;280.33;79.25;;;;;;;;;;5045627;28;20040;-60
2022/09/30 00:27:17;;;;;;;302.58;82.97;;;;;;;;;;5046524;28;20409;-61
2022/09/30 00:29:44;;;;;;;340.63;87.22;;;;;;;;;;5049944;28;20033;-61
2022/09/30 00:32:10;;;;;;;261.20;79.13;;;;;;;;;;5046023;28;20044;-61
2022/09/30 00:34:37;;;;;;;241.98;75.47;;;;;;;;;;5045735;28;20144;-62
2022/09/30 00:37:03;;;;;;;289.40;77.93;;;;;;;;;;5044766;28;20047;-62
2022/09/30 00:39:30;;;;;;;321.42;80.75;;;;;;;;;;5045172;28;20089;-61
2022/09/30 00:42:01;;;;;;;315.63;80.72;;;;;;;;;;5048505;28;20074;-61
2022/09/30 00:44:39;;;;;;;303.25;83.15;;;;;;;;;;5047816;28;20037;-59
2022/09/30 00:47:17;;;;;;;290.38;82.00;;;;;;;;;;5045070;28;20048;-60
2022/09/30 00:49:43;;;;;;;337.65;86.03;;;;;;;;;;5044797;28;20493;-60
2022/09/30 00:52:10;;;;;;;292.63;85.97;;;;;;;;;;5045116;28;20045;-60
2022/09/30 00:54:36;;;;;;;289.77;86.75;;;;;;;;;;5045182;28;20064;-59
2022/09/30 00:57:06;;;;;;;326.98;88.20;;;;;;;;;;5047278;28;20053;-60
2022/09/30 00:59:51;;;;;;;334.58;86.38;;;;;;;;;;5047942;28;20132;-60
2022/09/30 01:02:18;;;;;;;298.02;81.63;;;;;;;;;;5045778;28;20047;-60
2022/09/30 01:04:45;;;;;;;266.63;79.97;;;;;;;;;;5044850;28;20536;-60
2022/09/30 01:07:12;;;;;;;302.65;85.70;;;;;;;;;;5044377;28;20037;-60
2022/09/30 01:09:39;;;;;;;292.20;80.53;;;;;;;;;;5044492;28;20033;-60
2022/09/30 01:12:07;;;;;;;283.27;81.00;;;;;;;;;;5045587;28;20409;-60
2022/09/30 01:14:34;;;;;;;260.77;77.40;;;;;;;;;;5048244;28;20099;-60
2022/09/30 01:17:19;;;;;;;288.55;83.53;;;;;;;;;;5044202;28;20049;-60
2022/09/30 01:19:46;;;;;;;326.15;82.40;;;;;;;;;;5044010;28;20044;-60
2022/09/30 01:22:18;;;;;;;305.00;81.70;;;;;;;;;;5043731;28;20049;-59
2022/09/30 01:25:03;;;;;;;236.90;75.07;;;;;;;;;;5044619;28;20413;-62
2022/09/30 01:27:53;;;;;;;287.98;80.13;;;;;;;;;;5044127;28;20535;-60
2022/09/30 01:30:40;;;;;;;279.00;76.55;;;;;;;;;;5045239;28;20048;-59
2022/09/30 01:33:25;;;;;;;294.75;80.50;;;;;;;;;;5025484;28;20086;-62
2022/09/30 01:36:09;;;;;;;262.83;73.80;;;;;;;;;;5022201;28;20256;-62
2022/09/30 01:38:42;;;;;;;243.65;71.65;;;;;;;;;;5024402;28;20049;-61
2022/09/30 01:41:08;;;;;;;267.08;74.82;;;;;;;;;;5025370;28;20045;-62
2022/09/30 01:43:44;;;;;;;281.20;78.90;;;;;;;;;;5025330;28;20041;-60
2022/09/30 01:46:23;;;;;;;297.38;76.55;;;;;;;;;;5025396;28;20045;-60
2022/09/30 01:48:50;;;;;;;267.10;72.80;;;;;;;;;;5025285;28;20104;-60
2022/09/30 01:51:23;;;;;;;249.52;69.65;;;;;;;;;;5025162;28;20054;-61
2022/09/30 01:54:03;;;;;;;299.23;73.93;;;;;;;;;;5021949;28;20049;-61
2022/09/30 01:56:29;;;;;;;272.58;74.20;;;;;;;;;;5025885;28;20049;-61
2022/09/30 01:59:05;;;;;;;255.43;69.70;;;;;;;;;;5025054;28;20053;-61
2022/09/30 02:01:39;;;;;;;293.15;75.72;;;;;;;;;;5025183;28;20119;-61
2022/09/30 02:04:08;;;;;;;247.57;72.47;;;;;;;;;;5025052;28;20058;-61
2022/09/30 02:06:36;;;;;;;272.73;71.32;;;;;;;;;;5024803;28;20037;-61
2022/09/30 02:09:03;;;;;;;249.57;71.72;;;;;;;;;;5025097;28;20469;-61
2022/09/30 02:11:33;;;;;;;231.95;67.50;;;;;;;;;;5045872;28;20501;-61
2022/09/30 02:14:11;;;;;;;275.70;69.57;;;;;;;;;;5043631;28;20520;-61
2022/09/30 02:16:39;;;;;;;222.02;65.03;;;;;;;;;;5043505;28;20037;-61
2022/09/30 02:19:28;;;;;;;250.77;67.13;;;;;;;;;;5043589;28;20124;-61
2022/09/30 02:21:57;;;;;;;274.65;66.72;;;;;;;;;;5043050;28;20041;-62
2022/09/30 02:24:24;;;;;;;244.43;63.05;;;;;;;;;;5043389;28;20038;-61
2022/09/30 02:26:52;;;;;;;239.40;65.32;;;;;;;;;;5048090;28;20581;-60
2022/09/30 02:29:26;;;;;;;227.57;65.38;;;;;;;;;;5044543;28;20486;-61
2022/09/30 02:31:55;;;;;;;277.85;68.28;;;;;;;;;;5043073;28;20094;-61
2022/09/30 02:34:42;;;;;;;239.13;65.82;;;;;;;;;;5043509;28;20041;-61
2022/09/30 02:37:29;;;;;;;262.00;66.55;;;;;;;;;;5042581;28;20087;-61
2022/09/30 02:40:09;;;;;;;245.82;65.32;;;;;;;;;;5043255;28;20582;-61
2022/09/30 02:42:36;;;;;;;252.07;70.60;;;;;;;;;;5043699;28;20486;-61
2022/09/30 02:45:07;;;;;;;277.48;68.93;;;;;;;;;;5046393;28;20056;-61
2022/09/30 02:47:40;;;;;;;245.73;67.70;;;;;;;;;;5046309;28;20044;-62
2022/09/30 02:50:13;;;;;;;252.25;69.45;;;;;;;;;;5043322;28;20049;-63
2022/09/30 02:52:58;;;;;;;237.15;64.32;;;;;;;;;;5043134;28;20041;-61
2022/09/30 02:55:37;;;;;;;259.13;68.95;;;;;;;;;;5043660;28;20041;-64
2022/09/30 02:58:03;;;;;;;276.88;68.45;;;;;;;;;;5043285;28;20061;-63
2022/09/30 03:00:30;;;;;;;258.83;65.90;;;;;;;;;;5043344;28;20570;-64
2022/09/30 03:02:59;;;;;;;242.98;65.25;;;;;;;;;;5040810;28;20038;-60
2022/09/30 03:05:26;;;;;;;253.25;66.05;;;;;;;;;;5047119;28;20516;-59
2022/09/30 03:07:52;;;;;;;276.25;69.53;;;;;;;;;;5043009;28;20501;-59
2022/09/30 03:10:19;;;;;;;249.50;66.72;;;;;;;;;;5042863;28;20053;-60
2022/09/30 03:12:55;;;;;;;270.40;68.72;;;;;;;;;;5043292;28;20813;-62
2022/09/30 03:15:28;;;;;;;252.50;67.28;;;;;;;;;;5042244;28;20045;-61
2022/09/30 03:18:07;;;;;;;269.15;66.25;;;;;;;;;;5043576;28;20041;-61
2022/09/30 03:20:39;;;;;;;231.18;63.85;;;;;;;;;;5046056;28;20045;-61
2022/09/30 03:23:06;;;;;;;250.23;65.85;;;;;;;;;;5042446;28;20037;-60
2022/09/30 03:25:48;;;;;;;249.82;65.70;;;;;;;;;;5043059;28;20049;-60
2022/09/30 03:28:26;;;;;;;214.25;65.38;;;;;;;;;;5045642;28;20048;-60
2022/09/30 03:31:04;;;;;;;263.05;68.88;;;;;;;;;;5042706;28;20090;-60
2022/09/30 03:33:38;;;;;;;236.10;67.50;;;;;;;;;;5042736;28;20064;-61
2022/09/30 03:36:04;;;;;;;;;;;;;;;;;;5047795;28;20662;-61
2022/09/30 03:38:51;;;;;;;252.80;68.95;;;;;;;;;;5048890;28;19928;-61
2022/09/30 03:41:21;;;;;;;263.33;70.43;;;;;;;;;;5046643;28;20124;-61
2022/09/30 03:43:53;;;;;;;267.20;66.30;;;;;;;;;;5045998;28;20091;-61
2022/09/30 03:46:20;;;;;;;254.38;66.32;;;;;;;;;;5046375;28;20040;-60
2022/09/30 03:48:48;;;;;;;214.48;62.97;;;;;;;;;;5046420;28;20401;-61
2022/09/30 03:51:15;;;;;;;248.43;62.63;;;;;;;;;;5046204;28;20139;-60
2022/09/30 03:53:44;;;;;;;272.67;70.72;;;;;;;;;;5049826;28;20045;-62
2022/09/30 03:56:11;;;;;;;230.20;63.25;;;;;;;;;;5046336;28;20033;-61
2022/09/30 03:58:40;;;;;;;247.75;68.47;;;;;;;;;;5045984;28;20037;-61
2022/09/30 04:01:07;;;;;;;304.15;77.82;;;;;;;;;;5045597;28;20041;-62
2022/09/30 04:03:34;;;;;;;265.40;73.68;;;;;;;;;;5045979;28;20038;-61
2022/09/30 04:06:01;;;;;;;293.27;73.78;;;;;;;;;;5049092;28;20040;-61
2022/09/30 04:08:28;;;;;;;245.50;65.13;;;;;;;;;;5047736;28;20041;-60
2022/09/30 04:10:59;;;;;;;272.95;70.15;;;;;;;;;;5045580;28;20034;-60
2022/09/30 04:13:25;;;;;;;239.75;66.22;;;;;;;;;;5045824;28;20037;-61
2022/09/30 04:15:52;;;;;;;261.98;65.63;;;;;;;;;;5045219;28;20692;-60
2022/09/30 04:18:19;;;;;;;242.35;67.60;;;;;;;;;;5046541;28;20478;-61
2022/09/30 04:20:46;;;;;;;245.23;68.53;;;;;;;;;;5050436;28;20041;-61
2022/09/30 04:23:12;;;;;;;270.55;72.55;;;;;;;;;;5045106;28;20632;-61
2022/09/30 04:25:39;;;;;;;243.27;69.82;;;;;;;;;;5045477;28;20382;-60
2022/09/30 04:28:05;;;;;;;251.18;70.60;;;;;;;;;;5044158;28;20045;-60
2022/09/30 04:30:32;;;;;;;307.05;70.72;;;;;;;;;;5045126;28;20524;-61
2022/09/30 04:32:59;;;;;;;283.55;70.22;;;;;;;;;;5049678;28;20512;-61
2022/09/30 04:35:27;;;;;;;258.02;69.13;;;;;;;;;;5049301;28;20171;-61
2022/09/30 04:37:54;;;;;;;279.48;71.88;;;;;;;;;;5044870;28;20033;-61
2022/09/30 04:40:20;;;;;;;234.38;67.50;;;;;;;;;;5048759;28;20037;-60
2022/09/30 04:42:47;;;;;;;291.13;70.60;;;;;;;;;;5045482;28;20033;-61
2022/09/30 04:45:13;;;;;;;277.95;69.15;;;;;;;;;;5046658;28;20064;-61
2022/09/30 04:47:44;;;;;;;274.85;70.78;;;;;;;;;;5048612;28;20076;-59
2022/09/30 04:50:10;;;;;;;247.25;65.60;;;;;;;;;;5045299;28;20065;-60
2022/09/30 04:52:40;;;;;;;263.60;68.68;;;;;;;;;;5044935;28;20123;-61
2022/09/30 04:55:08;;;;;;;271.80;70.82;;;;;;;;;;5045105;28;20037;-61
2022/09/30 04:57:35;;;;;;;266.30;69.47;;;;;;;;;;5044690;28;20025;-61
2022/09/30 05:00:02;;;;;;;286.52;71.95;;;;;;;;;;5048925;28;20051;-62
2022/09/30 05:02:29;;;;;;;301.02;72.53;;;;;;;;;;5049867;28;20056;-61
2022/09/30 05:04:55;;;;;;;256.33;70.07;;;;;;;;;;5048824;28;20045;-61
2022/09/30 05:07:22;;;;;;;261.98;68.72;;;;;;;;;;5044551;28;20037;-62
2022/09/30 05:09:48;;;;;;;271.88;70.57;;;;;;;;;;5044496;28;20029;-61
2022/09/30 05:12:15;;;;;;;263.17;67.72;;;;;;;;;;5045739;28;20421;-62
2022/09/30 05:14:41;;;;;;;249.20;69.00;;;;;;;;;;5048337;28;20044;-61
2022/09/30 05:17:07;;;;;;;245.15;67.05;;;;;;;;;;5046534;28;20064;-61
2022/09/30 05:19:34;;;;;;;252.00;65.07;;;;;;;;;;5044651;28;20041;-61
2022/09/30 05:22:02;;;;;;;285.40;68.03;;;;;;;;;;5044325;28;20048;-61
2022/09/30 05:24:29;;;;;;;286.77;70.18;;;;;;;;;;5044683;28;20044;-61
2022/09/30 05:26:56;;;;;;;298.60;76.20;;;;;;;;;;5048921;28;20052;-61
2022/09/30 05:29:22;;;;;;;270.75;73.47;;;;;;;;;;5048318;28;20041;-62
2022/09/30 05:31:49;;;;;;;277.98;73.95;;;;;;;;;;5042790;28;20045;-62
2022/09/30 05:34:16;;;;;;;262.70;73.45;;;;;;;;;;5044045;28;20045;-62
2022/09/30 05:36:42;;;;;;;273.88;77.07;;;;;;;;;;5044416;28;20136;-61
2022/09/30 05:39:10;;;;;;;324.80;93.25;;;;;;;;;;5046455;28;20036;-63
2022/09/30 05:41:36;;;;;;;308.77;91.45;;;;;;;;;;5046978;28;20049;-62
2022/09/30 05:44:03;;;;;;;299.95;85.75;;;;;;;;;;5043769;28;20045;-61
2022/09/30 05:46:29;;;;;;;261.48;78.10;;;;;;;;;;5044254;28;20032;-62
2022/09/30 05:48:56;;;;;;;302.98;77.53;;;;;;;;;;5044325;28;20068;-62
2022/09/30 05:51:22;;;;;;;277.70;71.25;;;;;;;;;;5044258;28;20045;-61
2022/09/30 05:53:50;;;;;;;286.52;71.85;;;;;;;;;;5047992;28;20048;-61
2022/09/30 05:56:17;;;;;;;275.98;68.47;;;;;;;;;;5043710;28;20045;-61
2022/09/30 05:58:43;;;;;;;263.80;64.55;;;;;;;;;;5043481;28;20032;-62
2022/09/30 06:01:11;;;;;;;238.70;60.95;;;;;;;;;;5043944;28;20056;-62
2022/09/30 06:03:40;;;;;;;240.10;61.83;;;;;;;;;;5043655;28;20069;-62
2022/09/30 06:06:06;;;;;;;249.70;58.50;;;;;;;;;;5046693;28;20041;-62
2022/09/30 06:08:33;;;;;;;239.68;59.75;;;;;;;;;;5045956;28;20037;-62
2022/09/30 06:11:00;;;;;;;259.17;62.90;;;;;;;;;;5043407;28;20049;-62
2022/09/30 06:13:27;;;;;;;209.65;59.63;;;;;;;;;;5043537;28;20033;-62
2022/09/30 06:15:55;;;;;;;256.00;61.72;;;;;;;;;;5043426;28;20409;-62
2022/09/30 06:18:22;;;;;;;215.13;63.42;;;;;;;;;;5044323;28;20143;-63
2022/09/30 06:20:49;;;;;;;177.35;52.90;;;;;;;;;;5048464;28;20048;-63
2022/09/30 06:23:15;;;;;;;150.85;50.00;;;;;;;;;;5043150;28;20048;-63
2022/09/30 06:25:43;;;;;;;172.93;51.17;;;;;;;;;;5043293;28;20036;-63
2022/09/30 06:28:09;;;;;;;194.13;52.33;;;;;;;;;;5042748;28;20037;-62
2022/09/30 06:30:36;;;;;;;164.52;46.67;;;;;;;;;;5043544;28;20037;-63
2022/09/30 06:33:02;;;;;;;189.13;46.63;;;;;;;;;;5046989;28;20037;-63
2022/09/30 06:35:29;;;;;;;156.80;42.42;;;;;;;;;;5047622;28;20041;-63
2022/09/30 06:37:55;;;;;;;136.23;38.40;;;;;;;;;;5042233;28;20045;-63
2022/09/30 06:40:22;;;;;;;95.68;31.67;;;;;;;;;;5043472;28;20033;-63
2022/09/30 06:42:49;;;;;;;105.57;30.25;;;;;;;;;;5043291;28;20044;-63
2022/09/30 06:45:17;;;;;;;137.77;30.10;;;;;;;;;;5044984;28;20493;-63
2022/09/30 06:47:58;;;;;;;100.88;29.98;;;;;;;;;;5044073;28;20146;-64
2022/09/30 06:50:26;;;;;;;144.63;33.25;;;;;;;;;;5044456;28;20056;-63
2022/09/30 06:52:56;;;;;;;117.32;30.75;;;;;;;;;;5043169;28;20401;-62
2022/09/30 06:55:23;;;;;;;114.63;31.17;;;;;;;;;;5043693;28;20693;-63
2022/09/30 06:57:49;;;;;;;138.95;32.92;;;;;;;;;;5035298;28;20127;-63
2022/09/30 07:00:16;;;;;;;111.13;30.95;;;;;;;;;;5044928;28;20041;-63
2022/09/30 07:02:43;;;;;;;93.50;29.77;;;;;;;;;;5047273;28;20112;-63
2022/09/30 07:05:09;;;;;;;123.18;33.17;;;;;;;;;;5043285;28;20045;-63
2022/09/30 07:07:36;;;;;;;106.93;30.63;;;;;;;;;;5036544;28;20090;-63
2022/09/30 07:10:03;;;;;;;121.60;32.28;;;;;;;;;;5043102;28;20405;-63
2022/09/30 07:12:30;;;;;;;111.43;32.53;;;;;;;;;;5047222;28;20038;-64
2022/09/30 07:14:57;;;;;;;105.00;28.80;;;;;;;;;;5052028;28;20071;-63
2022/09/30 07:17:23;;;;;;;121.00;30.10;;;;;;;;;;5047619;28;20128;-63
2022/09/30 07:19:51;;;;;;;110.80;30.88;;;;;;;;;;5046610;28;20061;-63
2022/09/30 07:22:28;;;;;;;103.10;32.28;;;;;;;;;;5046763;28;20065;-63
2022/09/30 07:24:56;;;;;;;107.97;34.10;;;;;;;;;;5046773;28;20040;-63
2022/09/30 07:27:23;;;;;;;134.05;38.13;;;;;;;;;;5047301;28;20409;-63
2022/09/30 07:29:49;;;;;;;120.50;33.72;;;;;;;;;;5050930;28;20405;-63
2022/09/30 07:32:36;;;;;;;105.40;36.97;;;;;;;;;;5049182;28;20568;-63
2022/09/30 07:35:02;;;;;;;160.73;43.95;;;;;;;;;;5046456;28;20041;-63
2022/09/30 07:37:34;;;;;;;134.13;42.30;;;;;;;;;;5046341;28;20047;-63
2022/09/30 07:40:04;;;;;;;103.80;36.38;;;;;;;;;;5050695;28;20033;-63
2022/09/30 07:42:30;;;;;;;107.97;35.72;;;;;;;;;;5046520;28;20039;-63
2022/09/30 07:44:57;;;;;;;103.07;32.20;;;;;;;;;;5051175;28;20523;-63
2022/09/30 07:47:24;;;;;;;88.53;27.80;;;;;;;;;;5046979;28;20048;-63
2022/09/30 07:49:51;;;;;;;111.00;30.42;;;;;;;;;;5046242;28;20032;-63
2022/09/30 07:52:17;;;;;;;99.60;27.67;;;;;;;;;;5046342;28;20217;-63
2022/09/30 07:54:44;;;;;;;105.45;28.30;;;;;;;;;;5045968;28;20034;-63
2022/09/30 07:57:16;;;;;;;127.53;28.45;;;;;;;;;;5047901;28;20443;-63
2022/09/30 07:59:42;;;;;;;115.03;26.58;;;;;;;;;;5049458;28;20048;-60
2022/09/30 08:02:16;;;;;;;78.05;25.52;;;;;;;;;;5046064;28;20409;-60
2022/09/30 08:04:43;;;;;;;72.15;24.15;;;;;;;;;;5046133;28;20045;-61
2022/09/30 08:07:11;;;;;;;93.35;25.70;;;;;;;;;;5045868;28;20052;-60
2022/09/30 08:09:38;;;;;;;89.30;23.88;;;;;;;;;;5045686;28;20473;-60
2022/09/30 08:12:04;;;;;;;106.25;26.08;;;;;;;;;;5049087;28;20391;-60
2022/09/30 08:14:31;;;;;;;80.30;22.58;;;;;;;;;;5047879;28;20053;-60
2022/09/30 08:16:59;;;;;;;79.10;24.02;;;;;;;;;;5049913;28;20132;-61
2022/09/30 08:19:27;;;;;;;89.95;23.98;;;;;;;;;;5049902;28;20044;-60
2022/09/30 08:21:53;;;;;;;110.75;25.50;;;;;;;;;;5044668;28;20045;-61
2022/09/30 08:24:21;;;;;;;73.18;22.05;;;;;;;;;;5046663;28;20497;-61
2022/09/30 08:26:47;;;;;;;72.95;21.48;;;;;;;;;;5048608;28;20045;-60
2022/09/30 08:29:14;;;;;;;68.78;17.75;;;;;;;;;;5045447;28;20494;-61
2022/09/30 08:31:55;;;;;;;91.07;22.95;;;;;;;;;;5045291;28;20056;-60
2022/09/30 08:34:22;;;;;;;65.25;20.33;;;;;;;;;;5045419;28;20047;-61
2022/09/30 08:36:49;;;;;;;113.88;22.73;;;;;;;;;;5045433;28;20120;-61
2022/09/30 08:39:15;;;;;;;81.95;20.20;;;;;;;;;;5047629;28;20075;-62
2022/09/30 08:42:02;;;;;;;70.38;19.85;;;;;;;;;;5048562;28;20041;-62
2022/09/30 08:44:46;;;;;;;72.30;18.58;;;;;;;;;;5049116;28;20049;-61
2022/09/30 08:47:12;;;;;;;72.40;18.27;;;;;;;;;;5045255;28;20051;-61
2022/09/30 08:49:58;;;;;;;70.55;19.13;;;;;;;;;;5045222;28;20033;-61
2022/09/30 08:52:30;;;;;;;75.60;19.90;;;;;;;;;;5044585;28;20448;-62
2022/09/30 08:55:25;;;;;;;82.63;21.85;;;;;;;;;;5036072;28;20037;-62
2022/09/30 08:57:52;;;;;;;100.50;22.17;;;;;;;;;;5049215;28;20037;-61
2022/09/30 09:00:19;;;;;;;94.47;21.40;;;;;;;;;;5047187;28;20167;-62
2022/09/30 09:02:51;;;;;;;71.30;18.67;;;;;;;;;;5049968;28;20073;-62
2022/09/30 09:05:31;;;;;;;91.53;20.60;;;;;;;;;;5045122;28;20044;-61
2022/09/30 09:08:02;;;;;;;82.30;20.10;;;;;;;;;;5044510;28;20037;-61
2022/09/30 09:10:37;;;;;;;75.35;18.30;;;;;;;;;;5045037;28;20118;-61
2022/09/30 09:13:12;;;;;;;68.75;18.42;;;;;;;;;;5044723;28;20041;-61
2022/09/30 09:15:51;;;;;;;92.65;20.88;;;;;;;;;;5044726;28;20452;-61
2022/09/30 09:18:34;;;;;;;90.10;19.40;;;;;;;;;;5046328;28;20052;-61
2022/09/30 09:21:13;;;;;;;89.20;21.15;;;;;;;;;;5045244;28;20073;-61
2022/09/30 09:23:40;;;;;;;74.45;17.67;;;;;;;;;;5047171;28;20124;-61
2022/09/30 09:26:08;;;;;;;75.03;18.35;;;;;;;;;;5044474;28;20052;-61
2022/09/30 09:28:41;;;;;;;72.70;16.05;;;;;;;;;;5044478;28;20037;-62
2022/09/30 09:31:12;;;;;;;77.50;16.37;;;;;;;;;;5044180;28;20045;-62
2022/09/30 09:33:39;;;;;;;98.20;16.88;;;;;;;;;;5043561;28;20103;-62
2022/09/30 09:36:06;;;;;;;85.57;17.50;;;;;;;;;;5048299;28;20045;-62
2022/09/30 09:38:35;;;;;;;67.60;15.32;;;;;;;;;;5048803;28;20716;-61
2022/09/30 09:41:20;;;;;;;49.63;13.70;;;;;;;;;;5044791;28;20033;-62
2022/09/30 09:43:49;;;;;;;65.45;14.35;;;;;;;;;;5044121;28;20045;-62
2022/09/30 09:46:22;;;;;;;77.13;14.57;;;;;;;;;;5044153;28;20048;-62
2022/09/30 09:48:49;;;;;;;78.60;14.90;;;;;;;;;;5044342;28;20049;-62
2022/09/30 09:51:16;;;;;;;83.65;14.52;;;;;;;;;;5045893;28;20106;-62
2022/09/30 09:53:48;;;;;;;92.30;12.93;;;;;;;;;;5046671;28;20048;-62
2022/09/30 09:56:19;;;;;;;53.17;11.20;;;;;;;;;;5044429;28;20048;-62
2022/09/30 09:59:04;;;;;;;73.75;12.77;;;;;;;;;;5043939;28;20044;-62
2022/09/30 10:01:32;;;;;;;60.42;11.77;;;;;;;;;;5043778;28;20049;-62
2022/09/30 10:04:11;;;;;;;76.00;12.57;;;;;;;;;;5043714;28;20071;-62
2022/09/30 10:06:45;;;;;;;81.70;12.93;;;;;;;;;;5043594;28;20033;-62
2022/09/30 10:09:22;;;;;;;64.70;10.77;;;;;;;;;;5046263;28;20537;-62
2022/09/30 10:11:49;;;;;;;79.50;12.70;;;;;;;;;;5047758;28;20728;-62
2022/09/30 10:14:20;;;;;;;74.38;11.45;;;;;;;;;;5043667;28;20072;-62
2022/09/30 10:16:47;;;;;;;61.35;11.35;;;;;;;;;;5048120;28;20040;-62
2022/09/30 10:19:21;;;;;;;68.88;11.85;;;;;;;;;;5043449;28;20037;-61
2022/09/30 10:21:48;;;;;;;93.70;13.02;;;;;;;;;;5043299;28;20045;-62
2022/09/30 10:24:19;;;;;;;70.45;10.73;;;;;;;;;;5045414;28;20048;-61
2022/09/30 10:26:46;;;;;;;56.28;9.10;;;;;;;;;;5047279;28;20040;-61
2022/09/30 10:29:24;;;;;;;63.10;9.90;;;;;;;;;;5043777;28;20091;-62
2022/09/30 10:31:51;;;;;;;83.75;12.20;;;;;;;;;;5043270;28;20044;-61
2022/09/30 10:34:42;;;;;;;78.88;11.35;;;;;;;;;;5043632;28;20041;-61
2022/09/30 10:37:15;;;;;;;66.85;9.85;;;;;;;;;;5043322;28;20049;-62
2022/09/30 10:39:42;;;;;;;65.57;10.45;;;;;;;;;;5042167;28;20045;-61
2022/09/30 10:42:09;;;;;;;68.18;11.07;;;;;;;;;;5046778;28;20448;-61
2022/09/30 10:44:41;;;;;;;71.25;10.93;;;;;;;;;;5046827;28;20045;-61
2022/09/30 10:47:12;;;;;;;99.10;11.50;;;;;;;;;;5047265;28;20041;-61
2022/09/30 10:49:42;;;;;;;61.10;10.13;;;;;;;;;;5047494;28;20033;-62
2022/09/30 10:52:19;;;;;;;65.70;10.30;;;;;;;;;;5040964;28;20067;-62
2022/09/30 10:54:49;;;;;;;70.00;10.15;;;;;;;;;;5051803;28;20037;-61
2022/09/30 10:57:30;;;;;;;69.45;12.55;;;;;;;;;;5049929;28;20066;-61
2022/09/30 11:00:06;;;;;;;70.82;11.48;;;;;;;;;;5047870;28;20041;-62
2022/09/30 11:02:38;;;;;;;71.70;12.05;;;;;;;;;;5048639;28;20043;-63
2022/09/30 11:05:17;;;;;;;66.68;10.82;;;;;;;;;;5047650;28;20683;-62
2022/09/30 11:07:43;;;;;;;62.88;10.88;;;;;;;;;;5046542;28;20086;-61
2022/09/30 11:10:23;;;;;;;73.10;10.68;;;;;;;;;;5047240;28;20044;-62
2022/09/30 11:13:04;;;;;;;60.70;10.23;;;;;;;;;;5047262;28;20072;-62
2022/09/30 11:15:39;;;;;;;67.72;9.88;;;;;;;;;;5047096;28;20572;-62
2022/09/30 11:18:15;;;;;;;83.30;12.05;;;;;;;;;;5047398;28;20049;-61
2022/09/30 11:20:44;;;;;;;58.33;10.43;;;;;;;;;;5050108;28;20041;-62
2022/09/30 11:23:19;;;;;;;59.85;10.55;;;;;;;;;;5046715;28;20056;-61
2022/09/30 11:25:48;;;;;;;74.35;11.15;;;;;;;;;;5046426;28;20043;-62
2022/09/30 11:28:30;;;;;;;60.90;10.85;;;;;;;;;;5046492;28;20045;-62
2022/09/30 11:30:59;;;;;;;48.40;9.10;;;;;;;;;;5046294;28;20041;-61
2022/09/30 11:33:35;;;;;;;69.80;11.02;;;;;;;;;;5046502;28;20033;-62
2022/09/30 11:36:10;;;;;;;62.28;9.45;;;;;;;;;;5050698;28;20592;-62
2022/09/30 11:38:52;;;;;;;63.10;10.38;;;;;;;;;;5050233;28;20041;-62
2022/09/30 11:41:26;;;;;;;81.05;11.43;;;;;;;;;;5046318;28;20037;-62
2022/09/30 11:43:52;;;;;;;75.32;11.88;;;;;;;;;;5045917;28;20041;-62
2022/09/30 11:46:33;;;;;;;73.55;11.02;;;;;;;;;;5046176;28;20068;-62
2022/09/30 11:49:03;;;;;;;71.03;11.73;;;;;;;;;;5034410;28;20091;-62
2022/09/30 11:51:39;;;;;;;52.10;9.68;;;;;;;;;;5030455;28;20043;-62
2022/09/30 11:54:35;;;;;;;64.75;11.55;;;;;;;;;;5046312;28;20045;-62
2022/09/30 11:57:05;;;;;;;69.90;11.80;;;;;;;;;;5025501;28;20137;-61
2022/09/30 11:59:41;;;;;;;69.60;11.45;;;;;;;;;;5025406;28;20065;-62
2022/09/30 12:02:26;;;;;;;55.92;10.18;;;;;;;;;;5024292;28;20124;-62
2022/09/30 12:04:56;;;;;;;74.03;12.38;;;;;;;;;;5009944;28;20406;-61
2022/09/30 12:07:30;;;;;;;47.35;9.85;;;;;;;;;;5022981;28;20119;-61
2022/09/30 12:10:00;;;;;;;61.17;11.70;;;;;;;;;;5023083;28;20620;-61
2022/09/30 12:12:26;;;;;;;78.30;11.23;;;;;;;;;;5023857;28;20120;-62
2022/09/30 12:14:58;;;;;;;67.00;10.52;;;;;;;;;;5027507;28;20041;-61
2022/09/30 12:17:30;;;;;;;63.08;10.52;;;;;;;;;;5024129;28;20124;-61
2022/09/30 12:20:01;;;;;;;70.68;11.85;;;;;;;;;;5022675;28;20068;-61
2022/09/30 12:22:39;;;;;;;59.47;11.02;;;;;;;;;;5021198;28;20071;-61
2022/09/30 12:25:19;;;;;;;63.83;10.60;;;;;;;;;;5024311;28;20033;-62
2022/09/30 12:31:10;;;;;;;172.88;17.02;;;;;;;;;;5021826;28;20076;-62
2022/09/30 12:33:51;;;;;;;79.95;11.18;;;;;;;;;;5030914;28;20057;-62
2022/09/30 12:36:27;;;;;;;74.78;10.82;;;;;;;;;;5047397;28;20041;-61
2022/09/30 12:39:23;;;;;;;62.35;9.07;;;;;;;;;;5049337;28;20048;-62
2022/09/30 12:42:11;;;;;;;99.63;12.35;;;;;;;;;;5048198;28;20044;-62
2022/09/30 12:44:51;;;;;;;52.10;8.93;;;;;;;;;;5047030;28;20036;-62
2022/09/30 12:47:28;;;;;;;60.05;9.27;;;;;;;;;;5044939;28;20390;-62
2022/09/30 12:49:56;;;;;;;87.97;10.60;;;;;;;;;;5044816;28;20041;-61
2022/09/30 12:52:23;;;;;;;69.53;9.90;;;;;;;;;;5044397;28;20041;-62
2022/09/30 12:54:55;;;;;;;68.03;9.32;;;;;;;;;;5044757;28;20037;-61
2022/09/30 12:57:27;;;;;;;73.80;10.50;;;;;;;;;;5046430;28;20493;-61
2022/09/30 12:59:55;;;;;;;65.28;10.52;;;;;;;;;;5048657;28;20045;-62
2022/09/30 13:02:27;;;;;;;65.78;10.25;;;;;;;;;;5044551;28;20041;-62
2022/09/30 13:05:14;;;;;;;72.22;11.63;;;;;;;;;;5044824;28;20037;-61
2022/09/30 13:08:01;;;;;;;63.35;11.57;;;;;;;;;;5044105;28;20041;-62
2022/09/30 13:10:29;;;;;;;59.47;10.82;;;;;;;;;;5044213;28;20110;-61
2022/09/30 13:13:15;;;;;;;59.80;11.43;;;;;;;;;;5044803;28;20073;-62
2022/09/30 13:15:43;;;;;;;80.45;12.10;;;;;;;;;;5044814;28;20095;-61
2022/09/30 13:18:18;;;;;;;72.45;11.52;;;;;;;;;;5047417;28;20041;-61
2022/09/30 13:21:03;;;;;;;69.47;11.77;;;;;;;;;;5047317;28;20044;-61
2022/09/30 13:23:35;;;;;;;63.40;11.18;;;;;;;;;;5045313;28;20075;-61
2022/09/30 13:26:25;;;;;;;65.97;10.50;;;;;;;;;;5044392;28;20037;-62
2022/09/30 13:28:54;;;;;;;52.38;9.27;;;;;;;;;;5040397;28;20055;-61
2022/09/30 13:31:21;;;;;;;93.03;10.85;;;;;;;;;;5044265;28;20048;-61
2022/09/30 13:34:00;;;;;;;108.70;11.65;;;;;;;;;;5046442;28;20060;-61
2022/09/30 13:36:29;;;;;;;67.22;8.65;;;;;;;;;;5044526;28;20044;-61
2022/09/30 13:39:15;;;;;;;53.38;8.80;;;;;;;;;;5048419;28;20040;-62
2022/09/30 13:41:43;;;;;;;85.57;11.90;;;;;;;;;;5046294;28;20036;-62
2022/09/30 13:44:18;;;;;;;48.53;8.77;;;;;;;;;;5044439;28;20049;-61
2022/09/30 13:46:50;;;;;;;40.33;8.30;;;;;;;;;;5037991;28;20494;-62
2022/09/30 13:49:19;;;;;;;68.50;10.13;;;;;;;;;;5043948;28;20057;-61
2022/09/30 13:51:46;;;;;;;79.43;10.88;;;;;;;;;;5043613;28;20521;-62
2022/09/30 13:54:22;;;;;;;69.63;10.52;;;;;;;;;;5046958;28;20565;-61
2022/09/30 13:56:48;;;;;;;65.63;10.10;;;;;;;;;;5047394;28;20193;-61
2022/09/30 13:59:36;;;;;;;60.65;10.45;;;;;;;;;;5043649;28;20115;-62
2022/09/30 14:02:05;;;;;;;64.15;10.82;;;;;;;;;;5043803;28;20482;-61
2022/09/30 14:04:54;;;;;;;67.70;10.75;;;;;;;;;;5044067;28;20041;-62
2022/09/30 14:07:38;;;;;;;82.47;11.10;;;;;;;;;;5043142;28;20504;-61
2022/09/30 14:10:24;;;;;;;87.20;12.07;;;;;;;;;;5046141;28;20063;-61
2022/09/30 14:13:08;;;;;;;58.60;11.10;;;;;;;;;;5044050;28;20486;-61
2022/09/30 14:15:35;;;;;;;60.70;9.95;;;;;;;;;;5044111;28;20544;-61
2022/09/30 14:18:08;;;;;;;53.38;9.77;;;;;;;;;;5048846;28;20540;-62
2022/09/30 14:20:58;;;;;;;60.47;10.50;;;;;;;;;;5044681;28;20057;-61
2022/09/30 14:23:24;;;;;;;56.42;11.00;;;;;;;;;;5043431;28;20095;-61
2022/09/30 14:26:10;;;;;;;111.90;15.18;;;;;;;;;;5043139;28;20037;-61
2022/09/30 14:28:41;;;;;;;59.58;11.70;;;;;;;;;;5038333;28;20045;-61
2022/09/30 14:31:12;;;;;;;82.05;14.02;;;;;;;;;;5043432;28;20086;-61
2022/09/30 14:33:40;;;;;;;72.85;13.13;;;;;;;;;;5043574;28;20041;-62
2022/09/30 14:36:29;;;;;;;64.70;13.60;;;;;;;;;;5047266;28;20443;-62
2022/09/30 14:38:59;;;;;;;79.00;13.75;;;;;;;;;;5047686;28;20041;-61